CheckWX is a tool to help pilots better visualize weather data.  It is not intended as a substitute for an official pre-flight weather briefing.

02:50:28 UTC

LFPO METAR
Paris-Orly Airport
Paris, France
Current

20 mins ago

LFPO 120230Z 03006KT CAVOK 14/08 Q1026 NOSIG
Observed
Jul-12 @ 02:30 UTC
Wind
  • 030° at 6 KTS
Visibility
10,000+ meters
Flight Rules
VFR
Cloud Levels
  • Clear skies
Temperature
14°C / 57°F
Dewpoint
C / 46°F
Humidity
67%
Altimeter
30.3" Hg
Pressure
1025.92 hPa
Previous

1 hour ago

LFPO 120130Z 03010KT CAVOK 15/07 Q1026 NOSIG
Observed
Jul-12 @ 01:30 UTC
Wind
  • 030° at 10 KTS
Visibility
10,000+ meters
Flight Rules
VFR
Cloud Levels
  • Clear skies
Temperature
15°C / 59°F
Dewpoint
C / 45°F
Humidity
59%
Altimeter
30.3" Hg
Pressure
1025.92 hPa
Previous

2 hours ago

LFPO 120100Z 03011KT CAVOK 15/07 Q1026 NOSIG
Observed
Jul-12 @ 01:00 UTC
Wind
  • 030° at 11 KTS
Visibility
10,000+ meters
Flight Rules
VFR
Cloud Levels
  • Clear skies
Temperature
15°C / 59°F
Dewpoint
C / 45°F
Humidity
59%
Altimeter
30.3" Hg
Pressure
1025.92 hPa